Latest Weather Observations for Warra

IDT60801

Issued at 9:41 pm EST Thursday 24 September 2020 (issued every 10 minutes, with the page automatically refreshed every 10 minutes)

About weather observations | Map of weather stations | Latest weather observations for TAS | Other Formats
Station Details ID: 097024 Name: WARRA Lat: -43.06 Lon: 146.70 Height: 495.0 m
Data from the previous 72 hours. | See also: Recent months at Warra
Date/Time
EST
Temp
°C
App
Temp
°C
Dew
Point
°C
Rel
Hum
%
Delta-T
°C
Wind Press
QNH
hPa
Press
MSL
hPa
Rain since
9am
mm
Dir  Spd
km/h
Gust
km/h
Spd
kts
Gust
kts
24/09:30pm 4.4 2.8 4.4 100 0.0 SE 2 6 1 3 - - 1.4
24/09:00pm 4.3 1.9 4.3 100 0.0 SE 6 9 3 5 - - 1.4
24/08:30pm 4.5 2.0 4.5 100 0.0 SE 7 11 4 6 - - 1.4
24/08:00pm 4.8 2.3 4.7 99 0.0 S 7 9 4 5 - - 1.4
24/07:30pm 4.9 3.7 4.8 99 0.0 CALM 0 0 0 0 - - 1.0
24/07:00pm 5.1 3.6 4.8 98 0.1 WSW 2 7 1 4 - - 1.0
24/06:30pm 5.3 4.2 4.9 97 0.2 CALM 0 0 0 0 - - 1.0
24/06:00pm 5.5 2.6 4.8 95 0.3 WSW 9 15 5 8 - - 1.0
24/05:30pm 5.8 3.3 4.8 93 0.4 NW 7 9 4 5 - - 1.0
24/05:00pm 6.1 4.5 4.4 89 0.8 NNW 2 9 1 5 - - 0.8
24/04:30pm 6.3 3.8 4.8 90 0.7 N 7 11 4 6 - - 0.8
24/04:00pm 6.5 4.2 4.7 88 0.8 W 6 11 3 6 - - 0.8
24/03:30pm 6.4 3.8 4.2 86 1.0 WSW 7 15 4 8 - - 0.4
24/03:00pm 6.3 3.2 3.6 83 1.2 W 9 15 5 8 - - 0.4
24/02:30pm 7.3 5.7 4.3 81 1.3 SW 2 11 1 6 - - 0.4
24/02:00pm 7.2 5.0 3.6 78 1.6 NNW 4 9 2 5 - - 0.2
24/01:30pm 6.7 4.0 3.7 81 1.3 W 7 15 4 8 - - 0.2
24/01:00pm 7.0 4.3 3.8 80 1.4 SW 7 17 4 9 - - 0.0
24/12:30pm 6.6 3.0 2.7 76 1.7 S 11 15 6 8 - - 0.0
24/12:00pm 7.4 4.0 2.1 69 2.2 WNW 9 19 5 10 - - 0.0
24/11:30am 7.0 4.4 3.3 77 1.6 SW 6 11 3 6 - - 0.0
24/11:00am 7.2 2.8 2.7 73 1.9 N 15 20 8 11 - - 0.0
24/10:30am 6.1 3.3 2.0 75 1.7 WSW 6 9 3 5 - - 0.0
24/10:00am 5.7 3.0 2.5 80 1.3 ENE 6 9 3 5 - - 0.0
24/09:30am 5.0 2.0 2.2 82 1.2 NE 7 13 4 7 - - 0.0
24/09:00am 4.5 -0.2 1.2 79 1.3 W 15 24 8 13 - - 3.2
24/08:30am 4.4 0.8 0.7 77 1.5 W 9 22 5 12 - - 3.2
24/08:00am 3.6 1.1 1.6 87 0.8 W 4 15 2 8 - - 3.2
24/07:30am 3.3 0.7 1.2 86 0.8 W 4 7 2 4 - - 3.2
24/07:00am 3.2 -1.2 0.6 83 1.0 W 13 22 7 12 - - 3.2
24/06:30am 2.7 -0.9 0.6 86 0.8 WSW 9 17 5 9 - - 3.2
24/06:00am 2.8 -0.8 0.4 84 0.9 W 9 19 5 10 - - 3.2
24/05:30am 2.7 -1.6 0.8 87 0.7 W 13 20 7 11 - - 3.2
24/05:00am 2.4 -1.6 0.6 88 0.7 W 11 17 6 9 - - 3.2
24/04:30am 2.7 -1.3 0.8 87 0.7 WSW 11 19 6 10 - - 3.2
24/04:00am 2.9 -1.5 0.3 83 1.0 WSW 13 19 7 10 - - 3.2
24/03:30am 3.5 -1.2 0.6 81 1.1 WNW 15 24 8 13 - - 3.2
24/03:00am 3.2 -1.0 1.7 90 0.6 WSW 13 20 7 11 - - 3.2
24/02:30am 3.3 -0.5 2.0 91 0.5 WSW 11 15 6 8 - - 3.2
24/02:00am 3.4 -0.8 1.8 89 0.6 W 13 20 7 11 - - 3.2
24/01:30am 3.3 0.0 2.3 93 0.4 W 9 17 5 9 - - 3.2
24/01:00am 3.6 -0.8 2.6 93 0.4 WSW 15 22 8 12 - - 3.2
24/12:30am 3.5 -0.5 2.8 95 0.3 W 13 19 7 10 - - 3.2
24/12:00am 3.7 0.1 3.0 95 0.3 W 11 17 6 9 - - 3.2
 
Date/Time
EST
Temp
°C
App
Temp
°C
Dew
Point
°C
Rel
Hum
%
Delta-T
°C
Wind Press
QNH
hPa
Press
MSL
hPa
Rain since
9am
mm
Dir  Spd
km/h
Gust
km/h
Spd
kts
Gust
kts
23/11:30pm 3.9 0.4 3.3 96 0.3 W 11 20 6 11 - - 3.2
23/11:00pm 4.2 0.3 3.5 95 0.3 W 13 19 7 10 - - 3.2
23/10:30pm 4.2 0.8 3.8 97 0.2 W 11 17 6 9 - - 3.2
23/10:00pm 4.3 0.9 4.2 99 0.0 WSW 11 20 6 11 - - 3.2
23/09:30pm 4.4 1.4 4.3 99 0.0 W 9 15 5 8 - - 3.0
23/09:00pm 4.3 0.6 4.2 99 0.0 WSW 13 22 7 12 - - 3.0
23/08:30pm 4.3 0.2 4.2 99 0.0 WSW 15 24 8 13 - - 2.8
23/08:00pm 4.6 0.9 4.5 99 0.0 WSW 13 24 7 13 - - 2.6
23/07:30pm 4.6 0.9 4.3 98 0.1 WSW 13 32 7 17 - - 2.6
23/07:00pm 5.1 1.5 5.0 99 0.0 SW 13 20 7 11 - - 2.2
23/06:30pm 5.5 1.2 5.2 98 0.1 SW 17 28 9 15 - - 1.8
23/06:00pm 5.9 2.0 5.3 96 0.3 SW 15 24 8 13 - - 1.8
23/05:30pm 6.3 3.2 5.4 94 0.4 SW 11 19 6 10 - - 1.8
23/05:00pm 6.6 3.1 5.4 92 0.5 WSW 13 20 7 11 - - 1.8
23/04:30pm 7.0 3.6 5.9 93 0.5 SW 13 24 7 13 - - 1.8
23/04:00pm 7.1 3.3 5.9 92 0.6 SW 15 30 8 16 - - 1.8
23/03:30pm 7.4 3.7 6.5 94 0.4 WSW 15 26 8 14 - - 1.8
23/03:00pm 7.6 3.6 6.7 94 0.4 WSW 17 28 9 15 - - 1.8
23/02:30pm 7.8 3.8 6.7 93 0.5 WSW 17 26 9 14 - - 1.8
23/02:00pm 8.0 3.5 6.8 92 0.6 WSW 20 35 11 19 - - 1.8
23/01:30pm 8.5 4.2 6.8 89 0.8 SW 19 35 10 19 - - 1.6
23/01:00pm 8.1 3.4 6.1 87 0.9 WSW 20 41 11 22 - - 1.6
23/12:30pm 9.0 4.1 7.0 87 1.0 SW 22 39 12 21 - - 1.4
23/12:00pm 8.9 3.6 6.7 86 1.1 WSW 24 37 13 20 - - 1.4
23/11:30am 8.6 3.1 7.5 93 0.5 WSW 26 46 14 25 - - 1.4
23/11:00am 8.0 3.5 7.1 94 0.4 WSW 20 35 11 19 - - 1.4
23/10:38am 7.8 1.3 6.6 92 0.6 WSW 30 48 16 26 - - 1.0
23/10:30am 7.9 2.8 6.2 89 0.8 WSW 22 44 12 24 - - 1.0
23/10:00am 7.9 3.2 6.2 89 0.8 WSW 20 35 11 19 - - 0.2
23/09:30am 7.8 2.1 6.6 92 0.6 WSW 26 44 14 24 - - 0.0
23/09:00am 7.3 2.9 6.6 95 0.3 WSW 19 30 10 16 - - 19.8
23/08:30am 7.0 3.3 6.1 94 0.4 WSW 15 26 8 14 - - 19.6
23/08:00am 7.1 2.9 5.9 92 0.6 WSW 17 32 9 17 - - 19.4
23/07:30am 6.8 2.0 5.6 92 0.6 WSW 20 35 11 19 - - 19.2
23/07:00am 6.4 2.1 5.4 93 0.5 WSW 17 32 9 17 - - 19.2
23/06:30am 6.3 1.1 5.3 93 0.5 WSW 22 39 12 21 - - 19.0
23/06:00am 6.4 1.1 5.0 91 0.6 WSW 22 37 12 20 - - 18.4
23/05:30am 6.1 0.7 4.7 91 0.6 W 22 32 12 17 - - 18.2
23/05:00am 6.1 0.2 4.1 87 0.9 W 24 39 13 21 - - 18.2
23/04:30am 6.2 0.4 4.2 87 0.9 WNW 24 50 13 27 - - 18.0
23/04:00am 5.9 1.8 4.2 89 0.7 W 15 24 8 13 - - 14.8
23/03:30am 6.2 -0.8 4.2 87 0.9 WNW 30 52 16 28 - - 11.0
23/03:00am 6.4 -1.0 4.2 86 1.0 WNW 32 50 17 27 - - 9.8
23/02:30am 6.0 -1.1 3.8 86 1.0 WNW 30 56 16 30 - - 8.4
23/02:15am 5.9 -1.1 3.9 87 0.9 WNW 30 50 16 27 - - 7.6
23/02:00am 6.0 -0.3 4.0 87 0.9 WNW 26 43 14 23 - - 6.6
23/01:44am 6.3 -0.3 4.0 85 1.0 WNW 28 50 15 27 - - 5.6
23/01:30am 6.3 -0.7 4.0 85 1.0 WNW 30 44 16 24 - - 5.4
23/01:00am 6.0 -1.5 3.7 85 1.0 WNW 32 50 17 27 - - 5.2
23/12:30am 6.1 -1.3 3.8 85 1.0 WNW 32 57 17 31 - - 4.8
23/12:00am 6.2 -1.3 3.7 84 1.1 W 32 50 17 27 - - 4.6
 
Date/Time
EST
Temp
°C
App
Temp
°C
Dew
Point
°C
Rel
Hum
%
Delta-T
°C
Wind Press
QNH
hPa
Press
MSL
hPa
Rain since
9am
mm
Dir  Spd
km/h
Gust
km/h
Spd
kts
Gust
kts
22/11:56pm 6.4 -0.3 3.7 83 1.2 WNW 28 46 15 25 - - 4.6
22/11:34pm 6.1 0.6 3.9 86 1.0 WNW 22 44 12 24 - - 4.2
22/11:30pm 6.0 0.5 3.8 86 1.0 WNW 22 44 12 24 - - 4.2
22/11:00pm 6.1 0.5 3.6 84 1.1 WNW 22 33 12 18 - - 4.0
22/10:30pm 5.8 0.6 3.5 85 1.0 WNW 20 37 11 20 - - 3.8
22/10:00pm 6.0 3.5 4.5 90 0.7 W 7 11 4 6 - - 3.2
22/09:30pm 6.4 2.3 4.4 87 0.9 NW 15 28 8 15 - - 2.0
22/09:00pm 6.5 3.3 5.0 90 0.7 NW 11 30 6 16 - - 1.4
22/08:30pm 6.3 3.1 5.1 92 0.5 NNW 11 17 6 9 - - 0.8
22/08:00pm 6.8 2.3 4.3 84 1.1 NW 17 26 9 14 - - 0.8
22/07:30pm 6.9 1.4 3.9 81 1.3 NW 22 35 12 19 - - 0.8
22/07:00pm 6.9 1.5 2.4 73 1.9 WNW 20 32 11 17 - - 0.8
22/06:30pm 7.3 3.0 3.4 76 1.7 NW 15 28 8 15 - - 0.8
22/06:00pm 7.6 4.9 3.6 76 1.8 NW 7 13 4 7 - - 0.8
22/05:30pm 8.0 5.3 5.8 86 1.0 NNW 9 17 5 9 - - 0.8
22/05:00pm 9.2 6.0 5.0 75 1.9 NW 11 20 6 11 - - 0.6
22/04:30pm 9.8 6.1 4.6 70 2.4 W 13 20 7 11 - - 0.6
22/04:00pm 10.2 7.4 5.2 71 2.3 W 9 17 5 9 - - 0.6
22/03:30pm 10.2 7.2 6.0 75 2.0 N 11 19 6 10 - - 0.6
22/03:00pm 10.4 6.1 5.4 71 2.4 NW 17 33 9 18 - - 0.6
22/02:30pm 10.2 7.2 5.8 74 2.1 NNE 11 24 6 13 - - 0.6
22/02:00pm 10.2 7.4 6.9 80 1.6 N 11 20 6 11 - - 0.6
22/01:30pm 9.3 5.4 6.9 85 1.2 NW 17 30 9 16 - - 0.6
22/01:00pm 9.2 3.7 5.9 80 1.6 NNW 24 43 13 23 - - 0.2
22/12:53pm 9.8 4.9 5.2 73 2.1 NNW 20 41 11 22 - - 0.2
22/12:30pm 9.8 7.2 6.2 78 1.7 NW 9 19 5 10 - - 0.2
22/12:00pm 9.7 7.3 7.1 84 1.3 NNW 9 15 5 8 - - 0.2
22/11:30am 9.6 5.8 7.5 87 1.0 NW 17 39 9 21 - - 0.2
22/11:00am 9.7 5.6 6.4 80 1.6 NW 17 44 9 24 - - 0.2
22/10:30am 9.1 5.1 6.5 84 1.2 WNW 17 30 9 16 - - 0.0
22/10:00am 9.0 4.8 5.7 80 1.5 NW 17 35 9 19 - - 0.0
22/09:30am 8.8 4.2 5.5 80 1.5 NW 19 39 10 21 - - 0.0
22/09:00am 9.6 5.7 5.4 75 2.0 NW 15 44 8 24 - - 0.8
22/08:30am 8.6 4.2 5.0 78 1.7 NW 17 32 9 17 - - 0.8
22/08:00am 8.2 2.8 4.6 78 1.6 NW 22 48 12 26 - - 0.8
22/07:39am 8.0 1.5 4.6 79 1.5 NW 28 46 15 25 - - 0.8
22/07:30am 7.8 2.4 4.6 80 1.4 NW 22 48 12 26 - - 0.8
22/07:00am 6.9 2.8 4.6 85 1.0 NNW 15 30 8 16 - - 0.8
22/06:30am 6.7 1.9 4.5 86 1.0 NW 19 32 10 17 - - 0.8
22/06:00am 6.6 3.2 4.1 84 1.1 NW 11 20 6 11 - - 0.8
22/05:30am 6.5 2.8 4.5 87 0.9 NW 13 26 7 14 - - 0.8
22/05:00am 6.5 2.8 4.5 87 0.9 NW 13 20 7 11 - - 0.6
22/04:30am 6.8 1.4 4.3 84 1.1 NW 22 44 12 24 - - 0.6
22/04:00am 6.9 4.1 5.2 89 0.8 NNW 9 19 5 10 - - 0.4
22/03:30am 7.1 4.6 4.6 84 1.1 NNW 7 13 4 7 - - 0.2
22/03:00am 7.9 4.9 3.9 76 1.8 NW 9 20 5 11 - - 0.0
22/02:30am 8.1 4.6 3.6 73 2.0 NNW 11 17 6 9 - - 0.0
22/02:00am 7.9 5.6 2.8 70 2.2 N 4 9 2 5 - - 0.0
22/01:30am 8.6 5.0 2.8 67 2.5 NNW 11 26 6 14 - - 0.0
22/01:00am 7.9 5.0 2.8 70 2.2 NW 7 11 4 6 - - 0.0
22/12:30am 8.0 5.2 2.9 70 2.2 NNW 7 11 4 6 - - 0.0
22/12:00am 7.0 4.3 2.9 75 1.8 NW 6 11 3 6 - - 0.0
 
Date/Time
EST
Temp
°C
App
Temp
°C
Dew
Point
°C
Rel
Hum
%
Delta-T
°C
Wind Press
QNH
hPa
Press
MSL
hPa
Rain since
9am
mm
Dir  Spd
km/h
Gust
km/h
Spd
kts
Gust
kts
21/11:30pm 7.4 4.6 3.1 74 1.9 N 7 20 4 11 - - 0.0
21/11:00pm 6.9 4.1 3.3 78 1.6 NNE 7 11 4 6 - - 0.0
21/10:30pm 7.5 5.0 3.6 76 1.7 NE 6 11 3 6 - - 0.0
21/10:00pm 8.0 4.2 3.7 74 1.9 NNW 13 20 7 11 - - 0.0

Other formats

Comma delimited format used in spreadsheet applications
http://www.bom.gov.au/fwo/IDT60801/IDT60801.95962.axf

JavaScript Object Notation format (JSON) in row-major order
http://www.bom.gov.au/fwo/IDT60801/IDT60801.95962.json

Data quality

Most of these data are generated automatically and are frequently updated. Quality checks on data are not normally performed. It is possible for incorrect values to appear. Refer to information at About Latest Weather Observations and please check the disclaimer before using these data.